Airfield :
LOGIN :

Register | Disclaimer

   EN    FR    IT 

 










Legend :    VFR   Marginal VFR   IFR   Intensive IFR   Very Intensive IFR
Visi :
Ceiling :
>= 8 km
>= 3000ft
5 to 8 km
1000 to 3000 ft
1500m to 5 km
500 to 1000 ft
800 to 1500m
200 to 500 ft
< 800m
< 200 ft
Symbols :   Thunderstorms  Fog  Heavy snow  Heavy precipitations  Wind > 20 kt
SIGMETs :     Misc.  Thunderstorms  Icing  Turbulence  Mountain Waves  Volcanic Ashes






- Airport Elevation : 238 ft
- IATA code : FAB


EGLF - Farnborough

CURRENT METAR :
  • 301150Z AUTO 22017KT 9999 FEW019/// SCT035/// 14/10 Q1005

EXPIRED METARs :
  • 301120Z AUTO 22013KT 9999 FEW018 14/11 Q1005
  • 301050Z 22014KT 9999 FEW014 SCT020 13/11 Q1005
  • 301020Z 22018KT 190V250 9999 -SHRA SCT017CB BKN027 13/10 Q1005 RESHRA
  • 300950Z 23017KT 9999 VCSH SCT017 BKN026 13/10 Q1005
  • 300920Z 22013KT 9999 VCSH SCT016 BKN030 12/10 Q1005
  • 300850Z AUTO 22016KT 9999 FEW018 SCT027 12/09 Q1005

TAF TAF EGLF
Valid from the 30 at 12:00 until the 30 at 21:00 UTC


301058Z 3012/3021 22015KT 9999 SCT020
TEMPO 3012/3018 6000 SHRA BKN014
PROB30
TEMPO 3012/3017 23017G28KT 3000 +SHRA TSRA BKN009CB
ATIS : +44 09063 800 400 (*282)



MET'MAP, your aeronautical weather chart ! - Copyright ORBIFLY December 2007 - Disclaimer

ORBIFLY MET'MAP TEAM :

Programming & Development : Alexandra Zaïnal
Original concept : Baudouin d'Aumeries
Technical & hardware support : Manuel Goepfert
Assistance : Marc-Olivier Méhu




SOURCES & CREDITS :

   NOAA